<?xml version="1.0" encoding="UTF-8" standalone="no" ?>
<gpx xmlns="http://www.topografix.com/GPX/1/1" xmlns:xsi="http://www.w3.org/2001/XMLSchema-instance" xsi:schemaLocation="http://www.topografix.com/GPX/1/1 http://www.topografix.com/GPX/1/1/gpx.xsd" version="1.1" creator="VisuGPX - https://www.visugpx.com">
  <metadata>
    <name>MONTVERDUN - 8 FEV 2026</name>
    <desc><![CDATA[MARCOUX - MARCILLY LE CHATEL]]></desc>
  </metadata>
  <trk>
    <name><![CDATA[Trace 1770544375000]]></name>
    <trkseg>
      <trkpt lat="45.7152" lon="4.06631">
        <ele>428.4</ele>
        <time>2026-02-08T09:52:55.000Z</time>
      </trkpt>
      <trkpt lat="45.7156" lon="4.06637">
        <ele>427.2</ele>
        <time>2026-02-08T09:54:31.000Z</time>
      </trkpt>
      <trkpt lat="45.71561" lon="4.06636">
        <ele>427.5</ele>
        <time>2026-02-08T09:56:34.000Z</time>
      </trkpt>
      <trkpt lat="45.71623" lon="4.06653">
        <ele>435.9</ele>
        <time>2026-02-08T09:57:34.000Z</time>
      </trkpt>
      <trkpt lat="45.71687" lon="4.06644">
        <ele>445</ele>
        <time>2026-02-08T09:58:34.000Z</time>
      </trkpt>
      <trkpt lat="45.71744" lon="4.06588">
        <ele>455</ele>
        <time>2026-02-08T09:59:34.000Z</time>
      </trkpt>
      <trkpt lat="45.71802" lon="4.06555">
        <ele>452.3</ele>
        <time>2026-02-08T10:00:34.000Z</time>
      </trkpt>
      <trkpt lat="45.71851" lon="4.06571">
        <ele>440.7</ele>
        <time>2026-02-08T10:01:34.000Z</time>
      </trkpt>
      <trkpt lat="45.71889" lon="4.06599">
        <ele>433.9</ele>
        <time>2026-02-08T10:02:34.000Z</time>
      </trkpt>
      <trkpt lat="45.71937" lon="4.06636">
        <ele>421.2</ele>
        <time>2026-02-08T10:03:34.000Z</time>
      </trkpt>
      <trkpt lat="45.72005" lon="4.06611">
        <ele>412.6</ele>
        <time>2026-02-08T10:04:34.000Z</time>
      </trkpt>
      <trkpt lat="45.7205" lon="4.06533">
        <ele>415.4</ele>
        <time>2026-02-08T10:05:34.000Z</time>
      </trkpt>
      <trkpt lat="45.72063" lon="4.06418">
        <ele>418.7</ele>
        <time>2026-02-08T10:06:34.000Z</time>
      </trkpt>
      <trkpt lat="45.72133" lon="4.06411">
        <ele>418.8</ele>
        <time>2026-02-08T10:07:34.000Z</time>
      </trkpt>
      <trkpt lat="45.72207" lon="4.06436">
        <ele>416</ele>
        <time>2026-02-08T10:08:34.000Z</time>
      </trkpt>
      <trkpt lat="45.72248" lon="4.06545">
        <ele>412.5</ele>
        <time>2026-02-08T10:09:34.000Z</time>
      </trkpt>
      <trkpt lat="45.72263" lon="4.06641">
        <ele>412</ele>
        <time>2026-02-08T10:10:34.000Z</time>
      </trkpt>
      <trkpt lat="45.72292" lon="4.06728">
        <ele>410.2</ele>
        <time>2026-02-08T10:11:34.000Z</time>
      </trkpt>
      <trkpt lat="45.7238" lon="4.06697">
        <ele>413.4</ele>
        <time>2026-02-08T10:12:34.000Z</time>
      </trkpt>
      <trkpt lat="45.72389" lon="4.06805">
        <ele>417</ele>
        <time>2026-02-08T10:13:34.000Z</time>
      </trkpt>
      <trkpt lat="45.72364" lon="4.06911">
        <ele>409.7</ele>
        <time>2026-02-08T10:14:34.000Z</time>
      </trkpt>
      <trkpt lat="45.72332" lon="4.0702">
        <ele>414.3</ele>
        <time>2026-02-08T10:15:34.000Z</time>
      </trkpt>
      <trkpt lat="45.72307" lon="4.07121">
        <ele>415.3</ele>
        <time>2026-02-08T10:16:34.000Z</time>
      </trkpt>
      <trkpt lat="45.72295" lon="4.07205">
        <ele>410.2</ele>
        <time>2026-02-08T10:17:34.000Z</time>
      </trkpt>
      <trkpt lat="45.72305" lon="4.07278">
        <ele>402.2</ele>
        <time>2026-02-08T10:18:34.000Z</time>
      </trkpt>
      <trkpt lat="45.72334" lon="4.07359">
        <ele>413.7</ele>
        <time>2026-02-08T10:19:34.000Z</time>
      </trkpt>
      <trkpt lat="45.72346" lon="4.07363">
        <ele>409.8</ele>
        <time>2026-02-08T10:21:39.000Z</time>
      </trkpt>
      <trkpt lat="45.72396" lon="4.0733">
        <ele>410.8</ele>
        <time>2026-02-08T10:22:39.000Z</time>
      </trkpt>
      <trkpt lat="45.72402" lon="4.07389">
        <ele>415.6</ele>
        <time>2026-02-08T10:23:39.000Z</time>
      </trkpt>
      <trkpt lat="45.72427" lon="4.07422">
        <ele>405.8</ele>
        <time>2026-02-08T10:24:39.000Z</time>
      </trkpt>
      <trkpt lat="45.724" lon="4.0753">
        <ele>408</ele>
        <time>2026-02-08T10:25:39.000Z</time>
      </trkpt>
      <trkpt lat="45.72423" lon="4.0763">
        <ele>417.9</ele>
        <time>2026-02-08T10:26:39.000Z</time>
      </trkpt>
      <trkpt lat="45.72355" lon="4.07664">
        <ele>402.5</ele>
        <time>2026-02-08T10:27:39.000Z</time>
      </trkpt>
      <trkpt lat="45.723" lon="4.07686">
        <ele>407.3</ele>
        <time>2026-02-08T10:28:39.000Z</time>
      </trkpt>
      <trkpt lat="45.72247" lon="4.0773">
        <ele>399.8</ele>
        <time>2026-02-08T10:29:39.000Z</time>
      </trkpt>
      <trkpt lat="45.72252" lon="4.07769">
        <ele>410</ele>
        <time>2026-02-08T10:30:39.000Z</time>
      </trkpt>
      <trkpt lat="45.72325" lon="4.0775">
        <ele>412</ele>
        <time>2026-02-08T10:31:39.000Z</time>
      </trkpt>
      <trkpt lat="45.72376" lon="4.0781">
        <ele>409.7</ele>
        <time>2026-02-08T10:32:39.000Z</time>
      </trkpt>
      <trkpt lat="45.72462" lon="4.07808">
        <ele>408.7</ele>
        <time>2026-02-08T10:33:39.000Z</time>
      </trkpt>
      <trkpt lat="45.72539" lon="4.07788">
        <ele>407.8</ele>
        <time>2026-02-08T10:34:39.000Z</time>
      </trkpt>
      <trkpt lat="45.72615" lon="4.07777">
        <ele>410</ele>
        <time>2026-02-08T10:35:39.000Z</time>
      </trkpt>
      <trkpt lat="45.72654" lon="4.07676">
        <ele>411.8</ele>
        <time>2026-02-08T10:36:39.000Z</time>
      </trkpt>
      <trkpt lat="45.7272" lon="4.07665">
        <ele>418.7</ele>
        <time>2026-02-08T10:37:39.000Z</time>
      </trkpt>
      <trkpt lat="45.72802" lon="4.07664">
        <ele>417</ele>
        <time>2026-02-08T10:38:39.000Z</time>
      </trkpt>
      <trkpt lat="45.72865" lon="4.07665">
        <ele>410.7</ele>
        <time>2026-02-08T10:39:39.000Z</time>
      </trkpt>
      <trkpt lat="45.72904" lon="4.07588">
        <ele>413</ele>
        <time>2026-02-08T10:40:39.000Z</time>
      </trkpt>
      <trkpt lat="45.72875" lon="4.0747">
        <ele>412.7</ele>
        <time>2026-02-08T10:41:39.000Z</time>
      </trkpt>
      <trkpt lat="45.7285" lon="4.07358">
        <ele>407.5</ele>
        <time>2026-02-08T10:42:39.000Z</time>
      </trkpt>
      <trkpt lat="45.7284" lon="4.07237">
        <ele>409.3</ele>
        <time>2026-02-08T10:43:39.000Z</time>
      </trkpt>
      <trkpt lat="45.72846" lon="4.07135">
        <ele>411.5</ele>
        <time>2026-02-08T10:44:39.000Z</time>
      </trkpt>
      <trkpt lat="45.72854" lon="4.07033">
        <ele>413.6</ele>
        <time>2026-02-08T10:45:39.000Z</time>
      </trkpt>
      <trkpt lat="45.72866" lon="4.06915">
        <ele>412.1</ele>
        <time>2026-02-08T10:46:39.000Z</time>
      </trkpt>
      <trkpt lat="45.72914" lon="4.06809">
        <ele>413.8</ele>
        <time>2026-02-08T10:47:39.000Z</time>
      </trkpt>
      <trkpt lat="45.72956" lon="4.06711">
        <ele>415.7</ele>
        <time>2026-02-08T10:48:39.000Z</time>
      </trkpt>
      <trkpt lat="45.72954" lon="4.06601">
        <ele>410.6</ele>
        <time>2026-02-08T10:49:39.000Z</time>
      </trkpt>
      <trkpt lat="45.72947" lon="4.06476">
        <ele>414.9</ele>
        <time>2026-02-08T10:50:39.000Z</time>
      </trkpt>
      <trkpt lat="45.72962" lon="4.06355">
        <ele>412</ele>
        <time>2026-02-08T10:51:39.000Z</time>
      </trkpt>
      <trkpt lat="45.72976" lon="4.06235">
        <ele>414.7</ele>
        <time>2026-02-08T10:52:39.000Z</time>
      </trkpt>
      <trkpt lat="45.72992" lon="4.06136">
        <ele>416.4</ele>
        <time>2026-02-08T10:53:39.000Z</time>
      </trkpt>
      <trkpt lat="45.73001" lon="4.06031">
        <ele>412.5</ele>
        <time>2026-02-08T10:54:39.000Z</time>
      </trkpt>
      <trkpt lat="45.73015" lon="4.05911">
        <ele>412.4</ele>
        <time>2026-02-08T10:55:39.000Z</time>
      </trkpt>
      <trkpt lat="45.73024" lon="4.05842">
        <ele>416.3</ele>
        <time>2026-02-08T10:56:39.000Z</time>
      </trkpt>
      <trkpt lat="45.73036" lon="4.05733">
        <ele>412.5</ele>
        <time>2026-02-08T10:57:39.000Z</time>
      </trkpt>
      <trkpt lat="45.7305" lon="4.05612">
        <ele>419.3</ele>
        <time>2026-02-08T10:58:39.000Z</time>
      </trkpt>
      <trkpt lat="45.73061" lon="4.05502">
        <ele>409.4</ele>
        <time>2026-02-08T10:59:39.000Z</time>
      </trkpt>
      <trkpt lat="45.73049" lon="4.05379">
        <ele>413.8</ele>
        <time>2026-02-08T11:00:39.000Z</time>
      </trkpt>
      <trkpt lat="45.73046" lon="4.05297">
        <ele>413.4</ele>
        <time>2026-02-08T11:01:39.000Z</time>
      </trkpt>
      <trkpt lat="45.73091" lon="4.05232">
        <ele>418.6</ele>
        <time>2026-02-08T11:02:39.000Z</time>
      </trkpt>
      <trkpt lat="45.73007" lon="4.05208">
        <ele>413.6</ele>
        <time>2026-02-08T11:03:39.000Z</time>
      </trkpt>
      <trkpt lat="45.72995" lon="4.05124">
        <ele>423.3</ele>
        <time>2026-02-08T11:04:39.000Z</time>
      </trkpt>
      <trkpt lat="45.72994" lon="4.05127">
        <ele>419.4</ele>
        <time>2026-02-08T11:05:46.000Z</time>
      </trkpt>
      <trkpt lat="45.72918" lon="4.05079">
        <ele>417.7</ele>
        <time>2026-02-08T11:06:46.000Z</time>
      </trkpt>
      <trkpt lat="45.72851" lon="4.05021">
        <ele>415.1</ele>
        <time>2026-02-08T11:07:46.000Z</time>
      </trkpt>
      <trkpt lat="45.72786" lon="4.04973">
        <ele>403.6</ele>
        <time>2026-02-08T11:08:46.000Z</time>
      </trkpt>
      <trkpt lat="45.72753" lon="4.04867">
        <ele>410.5</ele>
        <time>2026-02-08T11:09:46.000Z</time>
      </trkpt>
      <trkpt lat="45.72773" lon="4.04775">
        <ele>416.3</ele>
        <time>2026-02-08T11:10:46.000Z</time>
      </trkpt>
      <trkpt lat="45.72784" lon="4.04652">
        <ele>416.9</ele>
        <time>2026-02-08T11:11:46.000Z</time>
      </trkpt>
      <trkpt lat="45.72724" lon="4.0459">
        <ele>412.5</ele>
        <time>2026-02-08T11:12:46.000Z</time>
      </trkpt>
      <trkpt lat="45.72663" lon="4.0455">
        <ele>415.8</ele>
        <time>2026-02-08T11:13:46.000Z</time>
      </trkpt>
      <trkpt lat="45.72576" lon="4.04556">
        <ele>410.3</ele>
        <time>2026-02-08T11:14:46.000Z</time>
      </trkpt>
      <trkpt lat="45.72491" lon="4.04552">
        <ele>410.4</ele>
        <time>2026-02-08T11:15:46.000Z</time>
      </trkpt>
      <trkpt lat="45.72448" lon="4.04496">
        <ele>423.2</ele>
        <time>2026-02-08T11:16:46.000Z</time>
      </trkpt>
      <trkpt lat="45.7243" lon="4.04448">
        <ele>426.6</ele>
        <time>2026-02-08T11:17:46.000Z</time>
      </trkpt>
      <trkpt lat="45.72437" lon="4.04436">
        <ele>422.4</ele>
        <time>2026-02-08T11:18:55.000Z</time>
      </trkpt>
      <trkpt lat="45.72436" lon="4.04471">
        <ele>423.6</ele>
        <time>2026-02-08T11:19:55.000Z</time>
      </trkpt>
      <trkpt lat="45.72437" lon="4.04468">
        <ele>425.3</ele>
        <time>2026-02-08T11:21:14.000Z</time>
      </trkpt>
      <trkpt lat="45.72435" lon="4.04469">
        <ele>427.6</ele>
        <time>2026-02-08T11:23:44.000Z</time>
      </trkpt>
      <trkpt lat="45.72437" lon="4.0447">
        <ele>425.6</ele>
        <time>2026-02-08T11:25:04.000Z</time>
      </trkpt>
      <trkpt lat="45.72433" lon="4.0447">
        <ele>427.5</ele>
        <time>2026-02-08T11:26:27.000Z</time>
      </trkpt>
      <trkpt lat="45.72438" lon="4.0447">
        <ele>426.1</ele>
        <time>2026-02-08T11:29:10.000Z</time>
      </trkpt>
      <trkpt lat="45.72437" lon="4.04471">
        <ele>429.7</ele>
        <time>2026-02-08T11:30:10.000Z</time>
      </trkpt>
      <trkpt lat="45.72438" lon="4.04454">
        <ele>425.5</ele>
        <time>2026-02-08T11:31:21.000Z</time>
      </trkpt>
      <trkpt lat="45.72431" lon="4.04465">
        <ele>431.9</ele>
        <time>2026-02-08T11:32:34.000Z</time>
      </trkpt>
      <trkpt lat="45.72434" lon="4.04467">
        <ele>428</ele>
        <time>2026-02-08T11:35:44.000Z</time>
      </trkpt>
      <trkpt lat="45.72432" lon="4.04469">
        <ele>425.5</ele>
        <time>2026-02-08T11:36:45.000Z</time>
      </trkpt>
      <trkpt lat="45.72375" lon="4.04459">
        <ele>428.3</ele>
        <time>2026-02-08T11:37:45.000Z</time>
      </trkpt>
      <trkpt lat="45.72295" lon="4.04423">
        <ele>431.9</ele>
        <time>2026-02-08T11:38:45.000Z</time>
      </trkpt>
      <trkpt lat="45.72253" lon="4.0439">
        <ele>423.8</ele>
        <time>2026-02-08T11:39:45.000Z</time>
      </trkpt>
      <trkpt lat="45.72272" lon="4.04308">
        <ele>424.5</ele>
        <time>2026-02-08T11:40:45.000Z</time>
      </trkpt>
      <trkpt lat="45.72289" lon="4.04193">
        <ele>427.1</ele>
        <time>2026-02-08T11:41:45.000Z</time>
      </trkpt>
      <trkpt lat="45.7231" lon="4.04078">
        <ele>419.7</ele>
        <time>2026-02-08T11:42:45.000Z</time>
      </trkpt>
      <trkpt lat="45.72329" lon="4.03958">
        <ele>419.3</ele>
        <time>2026-02-08T11:43:45.000Z</time>
      </trkpt>
      <trkpt lat="45.72334" lon="4.03835">
        <ele>421.2</ele>
        <time>2026-02-08T11:44:45.000Z</time>
      </trkpt>
      <trkpt lat="45.72333" lon="4.03709">
        <ele>426.1</ele>
        <time>2026-02-08T11:45:45.000Z</time>
      </trkpt>
      <trkpt lat="45.72358" lon="4.03589">
        <ele>428.5</ele>
        <time>2026-02-08T11:46:45.000Z</time>
      </trkpt>
      <trkpt lat="45.72394" lon="4.03472">
        <ele>422.9</ele>
        <time>2026-02-08T11:47:45.000Z</time>
      </trkpt>
      <trkpt lat="45.72429" lon="4.03355">
        <ele>427.7</ele>
        <time>2026-02-08T11:48:45.000Z</time>
      </trkpt>
      <trkpt lat="45.72462" lon="4.03235">
        <ele>430.9</ele>
        <time>2026-02-08T11:49:45.000Z</time>
      </trkpt>
      <trkpt lat="45.72474" lon="4.0313">
        <ele>429.2</ele>
        <time>2026-02-08T11:50:45.000Z</time>
      </trkpt>
      <trkpt lat="45.72474" lon="4.03005">
        <ele>429.8</ele>
        <time>2026-02-08T11:51:45.000Z</time>
      </trkpt>
      <trkpt lat="45.72487" lon="4.02879">
        <ele>428</ele>
        <time>2026-02-08T11:52:45.000Z</time>
      </trkpt>
      <trkpt lat="45.725" lon="4.02751">
        <ele>432.6</ele>
        <time>2026-02-08T11:53:45.000Z</time>
      </trkpt>
      <trkpt lat="45.72499" lon="4.02667">
        <ele>423.9</ele>
        <time>2026-02-08T11:54:45.000Z</time>
      </trkpt>
      <trkpt lat="45.72568" lon="4.02558">
        <ele>430.1</ele>
        <time>2026-02-08T11:55:45.000Z</time>
      </trkpt>
      <trkpt lat="45.72622" lon="4.02452">
        <ele>433.5</ele>
        <time>2026-02-08T11:56:45.000Z</time>
      </trkpt>
      <trkpt lat="45.72675" lon="4.02348">
        <ele>439.6</ele>
        <time>2026-02-08T11:57:45.000Z</time>
      </trkpt>
      <trkpt lat="45.72638" lon="4.02272">
        <ele>442.7</ele>
        <time>2026-02-08T11:58:45.000Z</time>
      </trkpt>
      <trkpt lat="45.72607" lon="4.02171">
        <ele>437.3</ele>
        <time>2026-02-08T11:59:45.000Z</time>
      </trkpt>
      <trkpt lat="45.72563" lon="4.02079">
        <ele>450.6</ele>
        <time>2026-02-08T12:00:45.000Z</time>
      </trkpt>
      <trkpt lat="45.72498" lon="4.02016">
        <ele>451.2</ele>
        <time>2026-02-08T12:01:45.000Z</time>
      </trkpt>
      <trkpt lat="45.7247" lon="4.01984">
        <ele>459.8</ele>
        <time>2026-02-08T12:02:45.000Z</time>
      </trkpt>
      <trkpt lat="45.72462" lon="4.01974">
        <ele>461</ele>
        <time>2026-02-08T12:03:48.000Z</time>
      </trkpt>
      <trkpt lat="45.72428" lon="4.01937">
        <ele>462.4</ele>
        <time>2026-02-08T12:04:48.000Z</time>
      </trkpt>
      <trkpt lat="45.72376" lon="4.01871">
        <ele>466.5</ele>
        <time>2026-02-08T12:05:48.000Z</time>
      </trkpt>
      <trkpt lat="45.72316" lon="4.01783">
        <ele>471</ele>
        <time>2026-02-08T12:06:48.000Z</time>
      </trkpt>
      <trkpt lat="45.72257" lon="4.01694">
        <ele>475</ele>
        <time>2026-02-08T12:07:48.000Z</time>
      </trkpt>
      <trkpt lat="45.72204" lon="4.01593">
        <ele>482.2</ele>
        <time>2026-02-08T12:08:48.000Z</time>
      </trkpt>
      <trkpt lat="45.72153" lon="4.0149">
        <ele>487.3</ele>
        <time>2026-02-08T12:09:48.000Z</time>
      </trkpt>
      <trkpt lat="45.72088" lon="4.01407">
        <ele>490.6</ele>
        <time>2026-02-08T12:10:48.000Z</time>
      </trkpt>
      <trkpt lat="45.72133" lon="4.01342">
        <ele>490.8</ele>
        <time>2026-02-08T12:11:48.000Z</time>
      </trkpt>
      <trkpt lat="45.72214" lon="4.01292">
        <ele>491</ele>
        <time>2026-02-08T12:12:48.000Z</time>
      </trkpt>
      <trkpt lat="45.72275" lon="4.01207">
        <ele>495.8</ele>
        <time>2026-02-08T12:13:48.000Z</time>
      </trkpt>
      <trkpt lat="45.72342" lon="4.01127">
        <ele>492</ele>
        <time>2026-02-08T12:14:48.000Z</time>
      </trkpt>
      <trkpt lat="45.72411" lon="4.01046">
        <ele>491.6</ele>
        <time>2026-02-08T12:15:48.000Z</time>
      </trkpt>
      <trkpt lat="45.72445" lon="4.00975">
        <ele>486</ele>
        <time>2026-02-08T12:16:48.000Z</time>
      </trkpt>
      <trkpt lat="45.72418" lon="4.00959">
        <ele>490.3</ele>
        <time>2026-02-08T12:17:48.000Z</time>
      </trkpt>
      <trkpt lat="45.72356" lon="4.00893">
        <ele>501.2</ele>
        <time>2026-02-08T12:18:48.000Z</time>
      </trkpt>
      <trkpt lat="45.72316" lon="4.00832">
        <ele>503.2</ele>
        <time>2026-02-08T12:19:48.000Z</time>
      </trkpt>
      <trkpt lat="45.72275" lon="4.00806">
        <ele>518.3</ele>
        <time>2026-02-08T12:20:48.000Z</time>
      </trkpt>
      <trkpt lat="45.72229" lon="4.00793">
        <ele>513.7</ele>
        <time>2026-02-08T12:21:48.000Z</time>
      </trkpt>
      <trkpt lat="45.72226" lon="4.00809">
        <ele>520</ele>
        <time>2026-02-08T12:24:48.000Z</time>
      </trkpt>
      <trkpt lat="45.7223" lon="4.00814">
        <ele>524</ele>
        <time>2026-02-08T12:26:42.000Z</time>
      </trkpt>
      <trkpt lat="45.72228" lon="4.00812">
        <ele>523.4</ele>
        <time>2026-02-08T12:27:54.000Z</time>
      </trkpt>
      <trkpt lat="45.72233" lon="4.00806">
        <ele>524.4</ele>
        <time>2026-02-08T12:29:37.000Z</time>
      </trkpt>
      <trkpt lat="45.72229" lon="4.00808">
        <ele>522.9</ele>
        <time>2026-02-08T12:30:40.000Z</time>
      </trkpt>
      <trkpt lat="45.7223" lon="4.00809">
        <ele>527.4</ele>
        <time>2026-02-08T12:33:10.000Z</time>
      </trkpt>
      <trkpt lat="45.72229" lon="4.00809">
        <ele>527.1</ele>
        <time>2026-02-08T12:36:14.000Z</time>
      </trkpt>
      <trkpt lat="45.72227" lon="4.00807">
        <ele>526.9</ele>
        <time>2026-02-08T12:37:16.000Z</time>
      </trkpt>
      <trkpt lat="45.72228" lon="4.00809">
        <ele>526.8</ele>
        <time>2026-02-08T12:38:43.000Z</time>
      </trkpt>
      <trkpt lat="45.72228" lon="4.00806">
        <ele>525</ele>
        <time>2026-02-08T12:41:49.000Z</time>
      </trkpt>
      <trkpt lat="45.72204" lon="4.00847">
        <ele>519</ele>
        <time>2026-02-08T12:42:49.000Z</time>
      </trkpt>
      <trkpt lat="45.72171" lon="4.00885">
        <ele>520.7</ele>
        <time>2026-02-08T12:43:49.000Z</time>
      </trkpt>
      <trkpt lat="45.72175" lon="4.0089">
        <ele>522.3</ele>
        <time>2026-02-08T12:46:12.000Z</time>
      </trkpt>
      <trkpt lat="45.72102" lon="4.00934">
        <ele>526.4</ele>
        <time>2026-02-08T12:47:12.000Z</time>
      </trkpt>
      <trkpt lat="45.72017" lon="4.00975">
        <ele>530</ele>
        <time>2026-02-08T12:48:12.000Z</time>
      </trkpt>
      <trkpt lat="45.71935" lon="4.01013">
        <ele>521.8</ele>
        <time>2026-02-08T12:49:12.000Z</time>
      </trkpt>
      <trkpt lat="45.71862" lon="4.01083">
        <ele>511.2</ele>
        <time>2026-02-08T12:50:12.000Z</time>
      </trkpt>
      <trkpt lat="45.71792" lon="4.01073">
        <ele>508.9</ele>
        <time>2026-02-08T12:51:12.000Z</time>
      </trkpt>
      <trkpt lat="45.71738" lon="4.01116">
        <ele>508.4</ele>
        <time>2026-02-08T12:52:12.000Z</time>
      </trkpt>
      <trkpt lat="45.71686" lon="4.01203">
        <ele>512.3</ele>
        <time>2026-02-08T12:53:12.000Z</time>
      </trkpt>
      <trkpt lat="45.71613" lon="4.01259">
        <ele>516.3</ele>
        <time>2026-02-08T12:54:12.000Z</time>
      </trkpt>
      <trkpt lat="45.71535" lon="4.01299">
        <ele>519.2</ele>
        <time>2026-02-08T12:55:12.000Z</time>
      </trkpt>
      <trkpt lat="45.71457" lon="4.01307">
        <ele>529.9</ele>
        <time>2026-02-08T12:56:12.000Z</time>
      </trkpt>
      <trkpt lat="45.71396" lon="4.01285">
        <ele>532.1</ele>
        <time>2026-02-08T12:57:12.000Z</time>
      </trkpt>
      <trkpt lat="45.71335" lon="4.0122">
        <ele>523.3</ele>
        <time>2026-02-08T12:58:12.000Z</time>
      </trkpt>
      <trkpt lat="45.71332" lon="4.01223">
        <ele>526.9</ele>
        <time>2026-02-08T12:59:18.000Z</time>
      </trkpt>
      <trkpt lat="45.71259" lon="4.01169">
        <ele>523.4</ele>
        <time>2026-02-08T13:00:18.000Z</time>
      </trkpt>
      <trkpt lat="45.71216" lon="4.01078">
        <ele>524.6</ele>
        <time>2026-02-08T13:01:18.000Z</time>
      </trkpt>
      <trkpt lat="45.71157" lon="4.01108">
        <ele>531.9</ele>
        <time>2026-02-08T13:02:18.000Z</time>
      </trkpt>
      <trkpt lat="45.71168" lon="4.01229">
        <ele>534.1</ele>
        <time>2026-02-08T13:03:18.000Z</time>
      </trkpt>
      <trkpt lat="45.71111" lon="4.01297">
        <ele>540.3</ele>
        <time>2026-02-08T13:04:18.000Z</time>
      </trkpt>
      <trkpt lat="45.71032" lon="4.01299">
        <ele>540.1</ele>
        <time>2026-02-08T13:05:18.000Z</time>
      </trkpt>
      <trkpt lat="45.70959" lon="4.01282">
        <ele>538.6</ele>
        <time>2026-02-08T13:06:18.000Z</time>
      </trkpt>
      <trkpt lat="45.70911" lon="4.0126">
        <ele>539.9</ele>
        <time>2026-02-08T13:07:18.000Z</time>
      </trkpt>
      <trkpt lat="45.70867" lon="4.01343">
        <ele>556.5</ele>
        <time>2026-02-08T13:08:18.000Z</time>
      </trkpt>
      <trkpt lat="45.70844" lon="4.01429">
        <ele>558.3</ele>
        <time>2026-02-08T13:09:18.000Z</time>
      </trkpt>
      <trkpt lat="45.70883" lon="4.01509">
        <ele>564.1</ele>
        <time>2026-02-08T13:10:18.000Z</time>
      </trkpt>
      <trkpt lat="45.70936" lon="4.0157">
        <ele>570.8</ele>
        <time>2026-02-08T13:11:18.000Z</time>
      </trkpt>
      <trkpt lat="45.70894" lon="4.01651">
        <ele>572.9</ele>
        <time>2026-02-08T13:12:18.000Z</time>
      </trkpt>
      <trkpt lat="45.70823" lon="4.01703">
        <ele>575.8</ele>
        <time>2026-02-08T13:13:18.000Z</time>
      </trkpt>
      <trkpt lat="45.70751" lon="4.01744">
        <ele>577.4</ele>
        <time>2026-02-08T13:14:18.000Z</time>
      </trkpt>
      <trkpt lat="45.70753" lon="4.01832">
        <ele>567.3</ele>
        <time>2026-02-08T13:15:18.000Z</time>
      </trkpt>
      <trkpt lat="45.70756" lon="4.01931">
        <ele>554.2</ele>
        <time>2026-02-08T13:16:18.000Z</time>
      </trkpt>
      <trkpt lat="45.70785" lon="4.0204">
        <ele>542.3</ele>
        <time>2026-02-08T13:17:18.000Z</time>
      </trkpt>
      <trkpt lat="45.70832" lon="4.02143">
        <ele>529.9</ele>
        <time>2026-02-08T13:18:18.000Z</time>
      </trkpt>
      <trkpt lat="45.70842" lon="4.02176">
        <ele>528</ele>
        <time>2026-02-08T13:19:18.000Z</time>
      </trkpt>
      <trkpt lat="45.70863" lon="4.02244">
        <ele>516.9</ele>
        <time>2026-02-08T13:20:18.000Z</time>
      </trkpt>
      <trkpt lat="45.70913" lon="4.02348">
        <ele>506.2</ele>
        <time>2026-02-08T13:21:18.000Z</time>
      </trkpt>
      <trkpt lat="45.70957" lon="4.02455">
        <ele>498.8</ele>
        <time>2026-02-08T13:22:18.000Z</time>
      </trkpt>
      <trkpt lat="45.71" lon="4.02518">
        <ele>496.2</ele>
        <time>2026-02-08T13:23:18.000Z</time>
      </trkpt>
      <trkpt lat="45.7105" lon="4.02618">
        <ele>489.2</ele>
        <time>2026-02-08T13:24:18.000Z</time>
      </trkpt>
      <trkpt lat="45.71076" lon="4.02739">
        <ele>483.1</ele>
        <time>2026-02-08T13:25:18.000Z</time>
      </trkpt>
      <trkpt lat="45.71099" lon="4.02862">
        <ele>478</ele>
        <time>2026-02-08T13:26:18.000Z</time>
      </trkpt>
      <trkpt lat="45.71052" lon="4.02928">
        <ele>476.3</ele>
        <time>2026-02-08T13:27:18.000Z</time>
      </trkpt>
      <trkpt lat="45.70975" lon="4.0299">
        <ele>473.2</ele>
        <time>2026-02-08T13:28:18.000Z</time>
      </trkpt>
      <trkpt lat="45.70922" lon="4.03066">
        <ele>468.2</ele>
        <time>2026-02-08T13:29:18.000Z</time>
      </trkpt>
      <trkpt lat="45.70876" lon="4.03175">
        <ele>465.9</ele>
        <time>2026-02-08T13:30:18.000Z</time>
      </trkpt>
      <trkpt lat="45.70826" lon="4.03271">
        <ele>461.4</ele>
        <time>2026-02-08T13:31:18.000Z</time>
      </trkpt>
      <trkpt lat="45.7079" lon="4.03369">
        <ele>456.4</ele>
        <time>2026-02-08T13:32:18.000Z</time>
      </trkpt>
      <trkpt lat="45.70797" lon="4.03491">
        <ele>455.2</ele>
        <time>2026-02-08T13:33:18.000Z</time>
      </trkpt>
      <trkpt lat="45.70822" lon="4.0361">
        <ele>453.9</ele>
        <time>2026-02-08T13:34:18.000Z</time>
      </trkpt>
      <trkpt lat="45.70822" lon="4.03733">
        <ele>450.3</ele>
        <time>2026-02-08T13:35:18.000Z</time>
      </trkpt>
      <trkpt lat="45.70799" lon="4.03811">
        <ele>446.2</ele>
        <time>2026-02-08T13:36:18.000Z</time>
      </trkpt>
      <trkpt lat="45.70714" lon="4.03791">
        <ele>446.7</ele>
        <time>2026-02-08T13:37:18.000Z</time>
      </trkpt>
      <trkpt lat="45.70659" lon="4.03773">
        <ele>453.5</ele>
        <time>2026-02-08T13:38:18.000Z</time>
      </trkpt>
      <trkpt lat="45.70584" lon="4.03788">
        <ele>450.4</ele>
        <time>2026-02-08T13:39:18.000Z</time>
      </trkpt>
      <trkpt lat="45.70507" lon="4.03829">
        <ele>447.4</ele>
        <time>2026-02-08T13:40:18.000Z</time>
      </trkpt>
      <trkpt lat="45.70448" lon="4.03918">
        <ele>447.7</ele>
        <time>2026-02-08T13:41:18.000Z</time>
      </trkpt>
      <trkpt lat="45.70391" lon="4.0401">
        <ele>445.4</ele>
        <time>2026-02-08T13:42:18.000Z</time>
      </trkpt>
      <trkpt lat="45.70335" lon="4.04099">
        <ele>445.6</ele>
        <time>2026-02-08T13:43:18.000Z</time>
      </trkpt>
      <trkpt lat="45.70296" lon="4.04109">
        <ele>445.8</ele>
        <time>2026-02-08T13:44:18.000Z</time>
      </trkpt>
      <trkpt lat="45.70248" lon="4.04012">
        <ele>449.4</ele>
        <time>2026-02-08T13:45:18.000Z</time>
      </trkpt>
      <trkpt lat="45.7018" lon="4.04049">
        <ele>454.9</ele>
        <time>2026-02-08T13:46:18.000Z</time>
      </trkpt>
      <trkpt lat="45.70116" lon="4.04113">
        <ele>450.3</ele>
        <time>2026-02-08T13:47:18.000Z</time>
      </trkpt>
      <trkpt lat="45.70075" lon="4.04212">
        <ele>448.4</ele>
        <time>2026-02-08T13:48:18.000Z</time>
      </trkpt>
      <trkpt lat="45.70037" lon="4.04312">
        <ele>450.7</ele>
        <time>2026-02-08T13:49:18.000Z</time>
      </trkpt>
      <trkpt lat="45.7" lon="4.04364">
        <ele>452.4</ele>
        <time>2026-02-08T13:50:18.000Z</time>
      </trkpt>
      <trkpt lat="45.69917" lon="4.04334">
        <ele>455.4</ele>
        <time>2026-02-08T13:51:18.000Z</time>
      </trkpt>
      <trkpt lat="45.69834" lon="4.04358">
        <ele>461.4</ele>
        <time>2026-02-08T13:52:18.000Z</time>
      </trkpt>
      <trkpt lat="45.69759" lon="4.04402">
        <ele>466.7</ele>
        <time>2026-02-08T13:53:18.000Z</time>
      </trkpt>
      <trkpt lat="45.69721" lon="4.04297">
        <ele>467.5</ele>
        <time>2026-02-08T13:54:18.000Z</time>
      </trkpt>
      <trkpt lat="45.69776" lon="4.04247">
        <ele>467.5</ele>
        <time>2026-02-08T13:55:18.000Z</time>
      </trkpt>
      <trkpt lat="45.69797" lon="4.04294">
        <ele>466.9</ele>
        <time>2026-02-08T13:56:18.000Z</time>
      </trkpt>
      <trkpt lat="45.698" lon="4.04309">
        <ele>466.5</ele>
        <time>2026-02-08T13:57:25.000Z</time>
      </trkpt>
      <trkpt lat="45.69789" lon="4.04286">
        <ele>463.7</ele>
        <time>2026-02-08T13:58:25.000Z</time>
      </trkpt>
      <trkpt lat="45.69787" lon="4.04289">
        <ele>463.6</ele>
        <time>2026-02-08T14:07:06.000Z</time>
      </trkpt>
      <trkpt lat="45.6979" lon="4.04287">
        <ele>469.6</ele>
        <time>2026-02-08T14:10:56.000Z</time>
      </trkpt>
      <trkpt lat="45.69791" lon="4.04282">
        <ele>468.9</ele>
        <time>2026-02-08T14:12:08.000Z</time>
      </trkpt>
      <trkpt lat="45.69793" lon="4.04284">
        <ele>466.3</ele>
        <time>2026-02-08T14:15:45.000Z</time>
      </trkpt>
      <trkpt lat="45.69793" lon="4.04286">
        <ele>466.5</ele>
        <time>2026-02-08T14:17:00.000Z</time>
      </trkpt>
      <trkpt lat="45.69734" lon="4.0426">
        <ele>467.9</ele>
        <time>2026-02-08T14:18:00.000Z</time>
      </trkpt>
      <trkpt lat="45.69743" lon="4.04352">
        <ele>468.1</ele>
        <time>2026-02-08T14:19:00.000Z</time>
      </trkpt>
      <trkpt lat="45.6974" lon="4.04428">
        <ele>465.5</ele>
        <time>2026-02-08T14:20:00.000Z</time>
      </trkpt>
      <trkpt lat="45.69692" lon="4.04452">
        <ele>465.7</ele>
        <time>2026-02-08T14:21:00.000Z</time>
      </trkpt>
      <trkpt lat="45.69632" lon="4.0449">
        <ele>461.3</ele>
        <time>2026-02-08T14:22:00.000Z</time>
      </trkpt>
      <trkpt lat="45.69587" lon="4.04567">
        <ele>456.4</ele>
        <time>2026-02-08T14:23:00.000Z</time>
      </trkpt>
      <trkpt lat="45.69576" lon="4.04668">
        <ele>455.3</ele>
        <time>2026-02-08T14:24:00.000Z</time>
      </trkpt>
      <trkpt lat="45.69573" lon="4.0477">
        <ele>451.7</ele>
        <time>2026-02-08T14:25:00.000Z</time>
      </trkpt>
      <trkpt lat="45.69567" lon="4.04874">
        <ele>454.6</ele>
        <time>2026-02-08T14:26:00.000Z</time>
      </trkpt>
      <trkpt lat="45.69558" lon="4.04989">
        <ele>453.1</ele>
        <time>2026-02-08T14:27:00.000Z</time>
      </trkpt>
      <trkpt lat="45.69566" lon="4.05092">
        <ele>451.5</ele>
        <time>2026-02-08T14:28:00.000Z</time>
      </trkpt>
      <trkpt lat="45.69504" lon="4.05125">
        <ele>455.2</ele>
        <time>2026-02-08T14:29:00.000Z</time>
      </trkpt>
      <trkpt lat="45.69502" lon="4.0515">
        <ele>453.8</ele>
        <time>2026-02-08T14:30:01.000Z</time>
      </trkpt>
      <trkpt lat="45.69448" lon="4.05221">
        <ele>459.8</ele>
        <time>2026-02-08T14:31:01.000Z</time>
      </trkpt>
      <trkpt lat="45.69456" lon="4.05269">
        <ele>462</ele>
        <time>2026-02-08T14:32:01.000Z</time>
      </trkpt>
      <trkpt lat="45.69462" lon="4.0528">
        <ele>463.1</ele>
        <time>2026-02-08T14:33:15.000Z</time>
      </trkpt>
      <trkpt lat="45.69494" lon="4.0534">
        <ele>459.2</ele>
        <time>2026-02-08T14:34:15.000Z</time>
      </trkpt>
      <trkpt lat="45.69515" lon="4.0538">
        <ele>461.3</ele>
        <time>2026-02-08T14:35:15.000Z</time>
      </trkpt>
      <trkpt lat="45.69542" lon="4.05439">
        <ele>458.9</ele>
        <time>2026-02-08T14:36:15.000Z</time>
      </trkpt>
      <trkpt lat="45.69549" lon="4.05456">
        <ele>460.8</ele>
        <time>2026-02-08T14:37:15.000Z</time>
      </trkpt>
      <trkpt lat="45.69584" lon="4.05524">
        <ele>461.2</ele>
        <time>2026-02-08T14:38:15.000Z</time>
      </trkpt>
      <trkpt lat="45.69614" lon="4.05593">
        <ele>461.8</ele>
        <time>2026-02-08T14:39:15.000Z</time>
      </trkpt>
      <trkpt lat="45.6964" lon="4.05688">
        <ele>462.1</ele>
        <time>2026-02-08T14:40:15.000Z</time>
      </trkpt>
      <trkpt lat="45.69665" lon="4.05782">
        <ele>464.1</ele>
        <time>2026-02-08T14:41:15.000Z</time>
      </trkpt>
      <trkpt lat="45.69673" lon="4.05811">
        <ele>464</ele>
        <time>2026-02-08T14:42:15.000Z</time>
      </trkpt>
      <trkpt lat="45.69696" lon="4.05893">
        <ele>465</ele>
        <time>2026-02-08T14:43:15.000Z</time>
      </trkpt>
      <trkpt lat="45.69718" lon="4.05978">
        <ele>461.7</ele>
        <time>2026-02-08T14:44:15.000Z</time>
      </trkpt>
      <trkpt lat="45.69739" lon="4.06062">
        <ele>459.9</ele>
        <time>2026-02-08T14:45:15.000Z</time>
      </trkpt>
      <trkpt lat="45.69768" lon="4.06145">
        <ele>458</ele>
        <time>2026-02-08T14:46:15.000Z</time>
      </trkpt>
      <trkpt lat="45.69812" lon="4.06208">
        <ele>455.9</ele>
        <time>2026-02-08T14:47:15.000Z</time>
      </trkpt>
      <trkpt lat="45.69852" lon="4.06245">
        <ele>454.4</ele>
        <time>2026-02-08T14:48:15.000Z</time>
      </trkpt>
      <trkpt lat="45.69907" lon="4.06288">
        <ele>452.7</ele>
        <time>2026-02-08T14:49:15.000Z</time>
      </trkpt>
      <trkpt lat="45.69961" lon="4.06336">
        <ele>451.8</ele>
        <time>2026-02-08T14:50:15.000Z</time>
      </trkpt>
      <trkpt lat="45.70019" lon="4.06389">
        <ele>450.9</ele>
        <time>2026-02-08T14:51:15.000Z</time>
      </trkpt>
      <trkpt lat="45.70078" lon="4.06443">
        <ele>448.7</ele>
        <time>2026-02-08T14:52:15.000Z</time>
      </trkpt>
      <trkpt lat="45.70094" lon="4.06472">
        <ele>446.1</ele>
        <time>2026-02-08T14:53:15.000Z</time>
      </trkpt>
      <trkpt lat="45.70118" lon="4.06534">
        <ele>448.1</ele>
        <time>2026-02-08T14:54:15.000Z</time>
      </trkpt>
      <trkpt lat="45.70145" lon="4.0661">
        <ele>446.7</ele>
        <time>2026-02-08T14:55:15.000Z</time>
      </trkpt>
      <trkpt lat="45.7018" lon="4.06692">
        <ele>447.7</ele>
        <time>2026-02-08T14:56:15.000Z</time>
      </trkpt>
      <trkpt lat="45.70229" lon="4.0676">
        <ele>445.8</ele>
        <time>2026-02-08T14:57:15.000Z</time>
      </trkpt>
      <trkpt lat="45.70268" lon="4.06842">
        <ele>444.6</ele>
        <time>2026-02-08T14:58:15.000Z</time>
      </trkpt>
      <trkpt lat="45.70304" lon="4.06924">
        <ele>442.9</ele>
        <time>2026-02-08T14:59:15.000Z</time>
      </trkpt>
      <trkpt lat="45.70341" lon="4.07009">
        <ele>441.9</ele>
        <time>2026-02-08T15:00:15.000Z</time>
      </trkpt>
      <trkpt lat="45.70384" lon="4.07093">
        <ele>438.2</ele>
        <time>2026-02-08T15:01:15.000Z</time>
      </trkpt>
      <trkpt lat="45.70419" lon="4.07165">
        <ele>439.1</ele>
        <time>2026-02-08T15:02:15.000Z</time>
      </trkpt>
      <trkpt lat="45.7046" lon="4.07249">
        <ele>437.8</ele>
        <time>2026-02-08T15:03:15.000Z</time>
      </trkpt>
      <trkpt lat="45.70499" lon="4.07333">
        <ele>437.5</ele>
        <time>2026-02-08T15:04:15.000Z</time>
      </trkpt>
      <trkpt lat="45.70538" lon="4.07417">
        <ele>439</ele>
        <time>2026-02-08T15:05:15.000Z</time>
      </trkpt>
      <trkpt lat="45.70581" lon="4.07497">
        <ele>436.6</ele>
        <time>2026-02-08T15:06:15.000Z</time>
      </trkpt>
      <trkpt lat="45.70606" lon="4.07529">
        <ele>436.2</ele>
        <time>2026-02-08T15:07:15.000Z</time>
      </trkpt>
      <trkpt lat="45.70616" lon="4.0751">
        <ele>436.1</ele>
        <time>2026-02-08T15:08:15.000Z</time>
      </trkpt>
      <trkpt lat="45.70657" lon="4.07441">
        <ele>437.4</ele>
        <time>2026-02-08T15:09:15.000Z</time>
      </trkpt>
      <trkpt lat="45.70705" lon="4.07378">
        <ele>435.7</ele>
        <time>2026-02-08T15:10:15.000Z</time>
      </trkpt>
      <trkpt lat="45.7075" lon="4.07328">
        <ele>431.7</ele>
        <time>2026-02-08T15:11:15.000Z</time>
      </trkpt>
      <trkpt lat="45.708" lon="4.07265">
        <ele>425.7</ele>
        <time>2026-02-08T15:12:15.000Z</time>
      </trkpt>
      <trkpt lat="45.70851" lon="4.07203">
        <ele>423.8</ele>
        <time>2026-02-08T15:13:15.000Z</time>
      </trkpt>
      <trkpt lat="45.7092" lon="4.07165">
        <ele>419.2</ele>
        <time>2026-02-08T15:14:15.000Z</time>
      </trkpt>
      <trkpt lat="45.70986" lon="4.07134">
        <ele>417.8</ele>
        <time>2026-02-08T15:15:15.000Z</time>
      </trkpt>
      <trkpt lat="45.71044" lon="4.07083">
        <ele>417</ele>
        <time>2026-02-08T15:16:15.000Z</time>
      </trkpt>
      <trkpt lat="45.71096" lon="4.07038">
        <ele>417.6</ele>
        <time>2026-02-08T15:17:15.000Z</time>
      </trkpt>
      <trkpt lat="45.71157" lon="4.06989">
        <ele>415.9</ele>
        <time>2026-02-08T15:18:15.000Z</time>
      </trkpt>
      <trkpt lat="45.71213" lon="4.06946">
        <ele>417.2</ele>
        <time>2026-02-08T15:19:15.000Z</time>
      </trkpt>
      <trkpt lat="45.71277" lon="4.06923">
        <ele>418.4</ele>
        <time>2026-02-08T15:20:15.000Z</time>
      </trkpt>
      <trkpt lat="45.7133" lon="4.06888">
        <ele>417.3</ele>
        <time>2026-02-08T15:21:15.000Z</time>
      </trkpt>
      <trkpt lat="45.71362" lon="4.06827">
        <ele>415.2</ele>
        <time>2026-02-08T15:22:15.000Z</time>
      </trkpt>
      <trkpt lat="45.71401" lon="4.06755">
        <ele>416.2</ele>
        <time>2026-02-08T15:23:15.000Z</time>
      </trkpt>
      <trkpt lat="45.71438" lon="4.06679">
        <ele>418.2</ele>
        <time>2026-02-08T15:24:15.000Z</time>
      </trkpt>
      <trkpt lat="45.71458" lon="4.06646">
        <ele>419.4</ele>
        <time>2026-02-08T15:25:15.000Z</time>
      </trkpt>
      <trkpt lat="45.71499" lon="4.06641">
        <ele>420.4</ele>
        <time>2026-02-08T15:26:15.000Z</time>
      </trkpt>
      <trkpt lat="45.71517" lon="4.06646">
        <ele>418.1</ele>
        <time>2026-02-08T15:27:15.000Z</time>
      </trkpt>
      <trkpt lat="45.71518" lon="4.06647">
        <ele>418</ele>
        <time>2026-02-08T15:28:35.000Z</time>
      </trkpt>
      <trkpt lat="45.71526" lon="4.06649">
        <ele>417.6</ele>
        <time>2026-02-08T15:29:35.000Z</time>
      </trkpt>
      <trkpt lat="45.71524" lon="4.06626">
        <ele>419.2</ele>
        <time>2026-02-08T15:30:35.000Z</time>
      </trkpt>
      <trkpt lat="45.71515" lon="4.06644">
        <ele>423.7</ele>
        <time>2026-02-08T15:32:02.000Z</time>
      </trkpt>
    </trkseg>
  </trk>
</gpx>